ADDS METAR Data INFO
IDs: Format: Raw Decoded Include TAF

Data at: 2214 UTC 24 Jun 2018

KEHC 242155Z AUTO 15013KT 7SM SCT018 BKN028 31/25 A2996 RMK A01
KEHC 242135Z AUTO 14014KT 7SM SCT017 SCT022 32/25 A2997 RMK A01
KEHC 242115Z AUTO 14011KT 7SM CLR 32/25 A2997 RMK A01
KEHC 242055Z AUTO 15013KT 7SM CLR 32/25 A2997 RMK A01
KEHC 242035Z AUTO 15014KT 8SM FEW019 FEW025 32/24 A2997 RMK A01
KEHC 242015Z AUTO 17014KT 8SM CLR 32/24 A2998 RMK A01
KEHC 241955Z AUTO 17018KT 8SM FEW023 32/24 A2998 RMK A01
KEHC 241935Z AUTO 17015KT 6SM HZ SCT023 31/24 A2999 RMK A01
KEHC 241915Z AUTO 15012G17KT 6SM HZ FEW018 32/25 A3000 RMK A01
KEHC 241855Z AUTO 16015KT 9SM FEW022 FEW030 32/25 A2999 RMK A01
KEHC 241835Z AUTO 16014KT 6SM HZ FEW022 FEW030 32/25 A3000 RMK A01
KEHC 241815Z AUTO 16013KT 7SM FEW019 FEW028 FEW037 31/25 A3000 RMK A01
KEHC 241755Z AUTO 16014KT 7SM SCT018 SCT022 BKN028 31/25 A3000 RMK A01
KEHC 241735Z AUTO 16015KT 7SM BKN018 BKN024 BKN028 30/25 A3000 RMK A01
KEHC 241715Z AUTO 17012KT 7SM FEW021 SCT028 SCT035 31/25 A2999 RMK A01
KEHC 241650Z AUTO 17015KT 7SM CLR 31/24 A2999 RMK A01
KEHC 241635Z AUTO 17017KT 8SM FEW021 31/24 A2999 RMK A01
KEHC 241615Z AUTO 17017KT 6SM HZ FEW019 30/24 A2998 RMK A01
KEHC 241555Z AUTO 16017KT 7SM FEW019 30/25 A2997 RMK A01
KEHC 241535Z AUTO 17016KT 7SM FEW018 SCT023 SCT029 30/25 A2997 RMK A01
KEHC 241515Z AUTO 17016KT 7SM FEW020 FEW025 SCT029 30/25 A2996 RMK A01
KEHC 241450Z AUTO 17015KT 7SM SCT019 SCT023 30/25 A2996 RMK A01
KEHC 241435Z AUTO 17018KT 7SM 29/24 A2995 RMK A01
KEHC 241415Z AUTO 18016KT 6SM HZ 29/24 A2995 RMK A01
KEHC 241345Z AUTO 18019KT 7SM FEW022 29/24 A2995 RMK A01
KEHC 241335Z AUTO 18018KT 7SM FEW023 29/24 A2995 RMK A01
KEHC 241315Z AUTO 18017KT 7SM CLR 29/24 A2995 RMK A01
KEHC 241255Z AUTO 18017KT 7SM CLR 29/24 A2994 RMK A01
KEHC 241235Z AUTO 18020KT 8SM FEW017 FEW024 28/24 A2994 RMK A01
KEHC 241215Z AUTO 18015KT 7SM SCT016 SCT023 SCT030 28/25 A2994 RMK A01
KEHC 241155Z AUTO 19014KT 7SM SCT017 BKN021 BKN030 28/25 A2994 RMK A01
KEHC 241135Z AUTO 19016KT 7SM BKN019 BKN028 28/24 A2995 RMK A01
KEHC 241115Z AUTO 19015KT 7SM SCT019 SCT025 28/24 A2995 RMK A01
KEHC 241055Z AUTO 18019KT 9SM SCT021 28/24 A2995 RMK A01
KEHC 241035Z AUTO 18017KT 8SM BKN020 28/24 A2995 RMK A01
KEHC 241015Z AUTO 18018KT 8SM SCT019 SCT035 SCT040 28/24 A2994 RMK A01
KEHC 240955Z AUTO 18018KT 8SM FEW016 SCT022 SCT035 28/25 A2994 RMK A01
KEHC 240935Z AUTO 19019KT 8SM CLR 28/24 A2994 RMK A01
KEHC 240915Z AUTO 18018KT 9SM FEW019 28/24 A2994 RMK A01
KEHC 240855Z AUTO 19020KT 8SM FEW019 28/24 A2993 RMK A01
KEHC 240835Z AUTO 19020KT 9SM FEW019 28/24 A2994 RMK A01
KEHC 240815Z AUTO 18023KT 8SM FEW019 28/25 A2993 RMK A01
KEHC 240755Z AUTO 18022KT 8SM CLR 28/25 A2993 RMK A01
KEHC 240735Z AUTO 18021KT 9SM FEW016 FEW027 28/25 A2993 RMK A01
KEHC 240710Z AUTO 18020KT 8SM FEW019 28/25 A2993 RMK A01
KEHC 240655Z AUTO 18020KT 9SM FEW020 29/25 A2992 RMK A01
KEHC 240635Z AUTO 17021KT 8SM CLR 29/25 A2992 RMK A01
KEHC 240615Z AUTO 18021KT 9SM CLR 28/25 A2992 RMK A01
KEHC 240555Z AUTO 17021KT 8SM FEW017 29/25 A2992 RMK A01
KEHC 240535Z AUTO 17019KT 8SM CLR 29/25 A2992 RMK A01
KEHC 240515Z AUTO 16018G23KT 7SM FEW017 29/25 A2992 RMK A01
KEHC 240455Z AUTO 16020KT 8SM FEW016 FEW023 29/25 A2992 RMK A01
KEHC 240435Z AUTO 16017KT 9SM FEW017 29/25 A2993 RMK A01
KEHC 240415Z AUTO 16018KT 9SM CLR 29/25 A2993 RMK A01
KEHC 240350Z AUTO 15015KT 9SM FEW017 29/25 A2993 RMK A01
KEHC 240335Z AUTO 15017KT 9SM FEW015 29/25 A2992 RMK A01
KEHC 240315Z AUTO 15016KT 9SM CLR 29/24 A2992 RMK A01
KEHC 240255Z AUTO 14015KT 9SM CLR 29/25 A2992 RMK A01
KEHC 240230Z AUTO 15015KT 9SM FEW020 29/24 A2990 RMK A01
KEHC 240215Z AUTO 16013KT 9SM FEW018 SCT025 29/24 A2991 RMK A01
KEHC 240155Z AUTO 16011KT 10SM FEW018 FEW027 29/24 A2990 RMK A01
KEHC 240135Z AUTO 16011KT 9SM CLR 29/24 A2989 RMK A01
KEHC 240115Z AUTO 17012KT 8SM CLR 29/24 A2989 RMK A01
KEHC 240055Z AUTO 17010KT 8SM CLR 29/24 A2989 RMK A01
KEHC 240035Z AUTO 17010KT 8SM FEW019 30/24 A2989 RMK A01
KEHC 240015Z AUTO 17010KT 8SM SCT019 30/24 A2989 RMK A01
KEHC 232355Z AUTO 16009KT 9SM FEW019 31/24 A2989 RMK A01
KEHC 232335Z AUTO 17010KT 8SM CLR 31/24 A2989 RMK A01
KEHC 232315Z AUTO 17007KT 9SM CLR 31/24 A2989 RMK A01
KEHC 232255Z AUTO 17007KT 9SM FEW018 FEW025 32/24 A2990 RMK A01
KEHC 232235Z AUTO 16008KT 9SM FEW019 FEW025 32/24 A2991 RMK A01
KEHC 232215Z AUTO 18009KT 9SM SCT019 SCT026 32/24 A2991 RMK A01
KEHC 232155Z AUTO 17007KT 9SM FEW019 SCT026 SCT041 31/24 A2992 RMK A01
KEHC 232135Z AUTO 18009KT 9SM FEW021 31/24 A2992 RMK A01
KEHC 232115Z AUTO 18010KT 9SM FEW021 31/24 A2992 RMK A01
KEHC 232055Z AUTO 19011KT 9SM SCT019 31/24 A2992 RMK A01
KEHC 232035Z AUTO 19010KT 9SM SCT020 SCT024 31/24 A2993 RMK A01
KEHC 232015Z AUTO 18009KT 9SM SCT020 SCT025 31/24 A2994 RMK A01
KEHC 231955Z AUTO 19011KT 8SM CLR 31/24 A2994 RMK A01
KEHC 231935Z AUTO 19009KT 9SM FEW021 31/24 A2995 RMK A01
KEHC 231915Z AUTO 19011KT 9SM FEW020 30/23 A2995 RMK A01
KEHC 231855Z AUTO 19011KT 9SM FEW020 FEW025 SCT030 31/24 A2995 RMK A01
KEHC 231835Z AUTO 19013KT 8SM FEW019 FEW025 31/24 A2995 RMK A01
KEHC 231815Z AUTO 18013KT 9SM CLR 30/24 A2994 RMK A01
KEHC 231755Z AUTO 18014KT 9SM CLR 30/24 A2994 RMK A01
KEHC 231735Z AUTO 18014KT 8SM CLR 30/24 A2995 RMK A01
KEHC 231715Z AUTO 19015KT 8SM CLR 30/24 A2995 RMK A01
KEHC 231655Z AUTO 20015KT 8SM FEW020 29/24 A2996 RMK A01
KEHC 231635Z AUTO 19014KT 8SM FEW020 29/24 A2997 RMK A01
KEHC 231615Z AUTO 20012KT 7SM CLR 29/24 A2997 RMK A01
KEHC 231555Z AUTO 20014KT 9SM CLR 29/24 A2996 RMK A01
KEHC 231535Z AUTO 20017KT 7SM CLR 28/23 A2995 RMK A01
KEHC 231515Z AUTO 20017KT 7SM FEW018 FEW029 FEW038 29/24 A2995 RMK A01
KEHC 231455Z AUTO 20018KT 8SM FEW019 FEW028 FEW038 28/24 A2995 RMK A01
KEHC 231435Z AUTO 19017KT 8SM CLR 28/24 A2995 RMK A01
KEHC 231415Z AUTO 19018KT 9SM CLR 28/24 A2995 RMK A01
KEHC 231355Z AUTO 19016KT 8SM FEW020 28/24 A2995 RMK A01
KEHC 231335Z AUTO 20017KT 8SM FEW021 28/24 A2995 RMK A01
KEHC 231315Z AUTO 19015KT 9SM CLR 28/24 A2994 RMK A01
KEHC 231255Z AUTO 19013KT 7SM FEW018 28/24 A2994 RMK A01
KEHC 231235Z AUTO 19013KT 8SM FEW018 28/24 A2994 RMK A01
KEHC 231210Z AUTO 19016KT 8SM CLR 28/24 A2993 RMK A01
KEHC 231155Z AUTO 19016KT 9SM FEW023 28/24 A2993 RMK A01
KEHC 231135Z AUTO 19015KT 7SM FEW019 FEW024 28/24 A2992 RMK A01
KEHC 231115Z AUTO 19014KT 7SM FEW016 28/24 A2991 RMK A01
KEHC 231055Z AUTO 19014KT FEW020 28/24 A2991 RMK A01
KEHC 231035Z AUTO 19015KT 9SM FEW017 FEW023 28/24 A2990 RMK A01
KEHC 231015Z AUTO 19016KT 9SM FEW017 FEW025 28/24 A2990 RMK A01